Diane H — WUR7250 — position and weather

sailwx.info

Track history (hours):
 
Tides and Currents Weather Stations Pressure Air Temp Water Temp Dewpoint Dewpoint Depression Visibility Wind Speed Wind Dir Waves Ship Positions

Diane H

Owner: BOYER TOWING INC, KETCHIKAN, AK. More information available from US FCC via Universal Licensing System and Coast Guard Vessel Documentation Center.

Last reported at 2015-Jan-22 17:05 UTC. Time now 2015-Jan-25 14:20 UTC.
Position N 47°32' W 122°20'.

Type: Towing. MMSI: 366673090.

Date/timePositionNaut miles runAvg speedWind from/ knotsBaromVisibWave heightAir tempDewpointWater temp
2015-Jan-22 17:05N 47°32' W 122°20'0 0.0
2015-Jan-22 17:01N 47°32' W 122°20'0 0.0
2015-Jan-22 16:33N 47°32' W 122°20'0 0.0
2015-Jan-22 16:31N 47°32' W 122°20'  
2015-Jan-15 21:45N 47°32' W 122°20'0 0.0
2015-Jan-15 21:35N 47°32' W 122°20'0 0.0
2015-Jan-15 21:34N 47°32' W 122°20'  
2015-Jan-13 01:49N 47°32' W 122°20'0 1.2
2015-Jan-13 01:33N 47°33' W 122°20'0 6.1
2015-Jan-13 01:30N 47°33' W 122°20'8 8.7
2015-Jan-13 00:33N 47°40' W 122°27'1 9.4
2015-Jan-13 00:30N 47°40' W 122°27'910.1
2015-Jan-12 23:33N 47°50' W 122°29'1 9.2
2015-Jan-12 23:29N 47°50' W 122°29'8 8.2
2015-Jan-12 22:33N 47°57' W 122°35'6 7.9
2015-Jan-12 21:49N 47°51' W 122°37'311.3
2015-Jan-12 21:33N 47°49' W 122°40'3 6.9
2015-Jan-12 21:04N 47°46' W 122°43'0 0.8
2015-Jan-12 20:34N 47°46' W 122°43'0 1.9
2015-Jan-12 20:18N 47°47' W 122°42'2 3.3
2015-Jan-12 19:33N 47°49' W 122°40'0 2.7
2015-Jan-12 19:28N 47°49' W 122°40'3 3.0
2015-Jan-12 18:33N 47°51' W 122°38'3 3.1
2015-Jan-12 17:32N 47°54' W 122°37'  
Track history (hours):
 
Tides and Currents Weather Stations Pressure Air Temp Water Temp Dewpoint Dewpoint Depression Visibility Wind Speed Wind Dir Waves Ship Positions

Diane H

Owner: BOYER TOWING INC, KETCHIKAN, AK. More information available from US FCC via Universal Licensing System and Coast Guard Vessel Documentation Center.

Last reported at 2015-Jan-22 17:05 UTC. Time now 2015-Jan-25 14:20 UTC.
Position N 47°32' W 122°20'.

Type: Towing. MMSI: 366673090.

Date/timePositionNaut miles runAvg speedWind from/ knotsBaromVisibWave heightAir tempDewpointWater temp
2015-Jan-22 17:05N 47°32' W 122°20'0 0.0
2015-Jan-22 17:01N 47°32' W 122°20'0 0.0
2015-Jan-22 16:33N 47°32' W 122°20'0 0.0
2015-Jan-22 16:31N 47°32' W 122°20'  
2015-Jan-15 21:45N 47°32' W 122°20'0 0.0
2015-Jan-15 21:35N 47°32' W 122°20'0 0.0
2015-Jan-15 21:34N 47°32' W 122°20'  
2015-Jan-13 01:49N 47°32' W 122°20'0 1.2
2015-Jan-13 01:33N 47°33' W 122°20'0 6.1
2015-Jan-13 01:30N 47°33' W 122°20'8 8.7
2015-Jan-13 00:33N 47°40' W 122°27'1 9.4
2015-Jan-13 00:30N 47°40' W 122°27'910.1
2015-Jan-12 23:33N 47°50' W 122°29'1 9.2
2015-Jan-12 23:29N 47°50' W 122°29'8 8.2
2015-Jan-12 22:33N 47°57' W 122°35'6 7.9
2015-Jan-12 21:49N 47°51' W 122°37'311.3
2015-Jan-12 21:33N 47°49' W 122°40'3 6.9
2015-Jan-12 21:04N 47°46' W 122°43'0 0.8
2015-Jan-12 20:34N 47°46' W 122°43'0 1.9
2015-Jan-12 20:18N 47°47' W 122°42'2 3.3
2015-Jan-12 19:33N 47°49' W 122°40'0 2.7
2015-Jan-12 19:28N 47°49' W 122°40'3 3.0
2015-Jan-12 18:33N 47°51' W 122°38'3 3.1
2015-Jan-12 17:32N 47°54' W 122°37'  

Dump ship's entire track history